createdAt,value
2019-05-07T00:01:05.988Z,15.17
2019-05-07T00:03:35.832Z,17.02
2019-05-07T00:06:05.961Z,17.77
2019-05-07T00:08:35.340Z,15.73
2019-05-07T00:11:05.113Z,15.47
2019-05-07T00:13:34.936Z,15.60
2019-05-07T00:16:04.487Z,15.83
2019-05-07T00:18:34.225Z,28.13
2019-05-07T00:21:03.667Z,26.17
2019-05-07T00:23:34.557Z,16.97
2019-05-07T00:26:08.651Z,15.10
2019-05-07T00:28:38.477Z,17.47
2019-05-07T00:31:07.865Z,15.10
2019-05-07T00:33:38.266Z,17.23
2019-05-07T00:36:36.495Z,17.13
2019-05-07T00:39:28.810Z,15.50
2019-05-07T00:42:05.168Z,16.57
2019-05-07T00:44:36.165Z,13.48
2019-05-07T00:47:05.564Z,14.10
2019-05-07T00:49:35.373Z,16.05
2019-05-07T00:52:12.231Z,12.40
2019-05-07T00:54:43.595Z,11.73
2019-05-07T00:57:12.924Z,20.03
2019-05-07T00:59:42.985Z,13.77
2019-05-07T01:02:13.710Z,13.17
2019-05-07T01:04:44.650Z,19.20
2019-05-07T01:07:17.038Z,14.23
2019-05-07T01:09:46.454Z,11.33
2019-05-07T01:12:17.252Z,16.52
2019-05-07T01:14:52.615Z,14.23
2019-05-07T01:17:22.879Z,17.35
2019-05-07T01:19:53.261Z,11.80
2019-05-07T01:22:25.046Z,13.40
2019-05-07T01:24:54.710Z,16.40
2019-05-07T01:27:24.158Z,16.48
2019-05-07T01:29:53.540Z,14.63
2019-05-07T01:32:33.015Z,18.13
2019-05-07T01:35:18.082Z,17.27
2019-05-07T01:37:47.649Z,17.03
2019-05-07T01:40:18.228Z,14.95
2019-05-07T01:42:47.644Z,14.70
2019-05-07T01:45:18.704Z,18.90
2019-05-07T01:47:48.958Z,16.80
2019-05-07T01:50:18.971Z,30.97
2019-05-07T01:52:48.370Z,14.67
2019-05-07T01:55:22.710Z,14.23
2019-05-07T01:57:53.110Z,13.27
2019-05-07T02:00:22.576Z,16.70
2019-05-07T02:02:57.452Z,15.10
2019-05-07T02:05:52.668Z,26.40
2019-05-07T02:08:42.322Z,68.37
2019-05-07T02:11:14.300Z,127.37
2019-05-07T02:13:43.730Z,153.43
2019-05-07T02:16:13.161Z,189.97
2019-05-07T02:18:42.793Z,441.00
2019-05-07T02:21:12.862Z,282.00
2019-05-07T02:23:42.725Z,164.87
2019-05-07T02:26:13.513Z,157.50
2019-05-07T02:28:43.084Z,221.10
2019-05-07T02:31:14.991Z,156.73
2019-05-07T02:33:43.862Z,159.50
2019-05-07T02:36:14.436Z,131.47
2019-05-07T02:38:53.103Z,149.60
2019-05-07T02:41:33.145Z,108.97
2019-05-07T02:44:04.125Z,97.83
2019-05-07T02:46:43.341Z,92.70
2019-05-07T02:49:24.129Z,87.70
2019-05-07T02:52:05.194Z,55.93
2019-05-07T02:54:53.898Z,51.20
2019-05-07T02:57:24.222Z,63.73
2019-05-07T02:59:54.589Z,82.50
2019-05-07T03:02:25.860Z,81.67
2019-05-07T03:04:55.379Z,90.80
2019-05-07T03:07:34.536Z,60.50
2019-05-07T03:10:06.448Z,90.70
2019-05-07T03:12:36.442Z,90.80
2019-05-07T03:15:06.644Z,55.58
2019-05-07T03:17:36.781Z,64.83
2019-05-07T03:20:13.591Z,64.05
2019-05-07T03:22:42.900Z,68.20
2019-05-07T03:25:23.274Z,78.03
2019-05-07T03:27:59.873Z,50.47
2019-05-07T03:30:48.141Z,48.80
2019-05-07T03:33:28.248Z,37.67
2019-05-07T03:36:07.329Z,39.97
2019-05-07T03:38:34.683Z,40.17
2019-05-07T03:41:05.561Z,42.73
2019-05-07T03:43:37.259Z,33.95
2019-05-07T03:46:14.097Z,25.07
2019-05-07T03:48:46.981Z,32.63
2019-05-07T03:51:39.850Z,34.38
2019-05-07T03:54:10.161Z,34.98
2019-05-07T03:56:43.561Z,22.80
2019-05-07T03:59:14.340Z,26.12
2019-05-07T04:01:43.641Z,18.33
2019-05-07T04:04:14.619Z,25.82
2019-05-07T04:06:44.690Z,26.50
2019-05-07T04:09:15.431Z,26.65
2019-05-07T04:11:47.435Z,26.30
2019-05-07T04:14:23.469Z,29.63
2019-05-07T04:17:04.722Z,27.50
2019-05-07T04:19:26.323Z,20.40
2019-05-07T04:21:58.812Z,22.17
2019-05-07T04:24:48.318Z,24.05
2019-05-07T04:27:26.277Z,13.98
2019-05-07T04:29:55.945Z,16.30
2019-05-07T04:32:33.379Z,17.67
2019-05-07T04:35:09.114Z,12.85
2019-05-07T04:37:39.321Z,14.63
2019-05-07T04:40:09.702Z,20.50
2019-05-07T04:42:39.035Z,15.10
2019-05-07T04:45:09.253Z,15.10
2019-05-07T04:47:44.282Z,13.73
2019-05-07T04:50:13.908Z,12.43
2019-05-07T04:52:43.909Z,15.27
2019-05-07T04:55:22.719Z,11.63
2019-05-07T04:57:53.359Z,17.53
2019-05-07T05:00:23.156Z,20.27
2019-05-07T05:03:17.861Z,10.13
2019-05-07T05:05:47.240Z,10.60
2019-05-07T05:08:18.456Z,15.15
2019-05-07T05:10:48.301Z,13.20
2019-05-07T05:13:18.182Z,11.12
2019-05-07T05:15:48.904Z,12.43
2019-05-07T05:18:18.583Z,10.80
2019-05-07T05:21:06.905Z,8.53
2019-05-07T05:23:53.901Z,8.43
2019-05-07T05:26:24.888Z,14.33
2019-05-07T05:28:58.888Z,10.57
2019-05-07T05:31:28.570Z,10.03
2019-05-07T05:33:57.967Z,24.93
2019-05-07T05:36:33.014Z,12.70
2019-05-07T05:39:07.076Z,9.03
2019-05-07T05:41:42.104Z,8.30
2019-05-07T05:44:22.630Z,14.03
2019-05-07T05:46:52.597Z,9.50
2019-05-07T05:49:22.978Z,20.23
2019-05-07T05:52:13.170Z,15.17
2019-05-07T05:54:58.913Z,9.37
2019-05-07T05:57:52.987Z,9.85
2019-05-07T06:00:43.377Z,23.30
2019-05-07T06:03:37.170Z,19.70
2019-05-07T06:06:25.930Z,13.67
2019-05-07T06:09:15.353Z,17.45
2019-05-07T06:12:12.686Z,9.43
2019-05-07T06:15:06.446Z,11.30
2019-05-07T06:17:58.293Z,14.13
2019-05-07T06:20:54.768Z,6.93
2019-05-07T06:23:42.654Z,6.90
2019-05-07T06:26:14.824Z,10.32
2019-05-07T06:28:46.319Z,10.37
2019-05-07T06:31:17.812Z,8.70
2019-05-07T06:33:52.318Z,11.83
2019-05-07T06:36:26.580Z,10.58
2019-05-07T06:39:18.239Z,8.33
2019-05-07T06:42:29.389Z,10.80
2019-05-07T06:45:07.149Z,10.40
2019-05-07T06:47:36.758Z,11.87
2019-05-07T06:50:07.032Z,8.93
2019-05-07T06:52:36.743Z,8.87
2019-05-07T06:55:08.946Z,9.70
2019-05-07T06:57:42.568Z,10.37
2019-05-07T07:00:36.471Z,10.13
2019-05-07T07:03:23.661Z,10.30
2019-05-07T07:05:58.781Z,11.03
2019-05-07T07:08:35.612Z,11.68
2019-05-07T07:11:24.934Z,13.47
2019-05-07T07:13:54.618Z,14.57
2019-05-07T07:16:27.901Z,10.97
2019-05-07T07:19:03.793Z,13.17
2019-05-07T07:21:42.032Z,15.30
2019-05-07T07:24:12.714Z,10.77
2019-05-07T07:26:42.325Z,13.07
2019-05-07T07:29:13.091Z,12.43
2019-05-07T07:31:52.844Z,11.47
2019-05-07T07:34:23.808Z,9.60
2019-05-07T07:37:06.029Z,10.73
2019-05-07T07:39:32.848Z,14.53
2019-05-07T07:42:04.464Z,13.20
2019-05-07T07:44:34.888Z,18.90
2019-05-07T07:47:04.643Z,10.40
2019-05-07T07:49:34.556Z,9.37
2019-05-07T07:52:05.836Z,8.97
2019-05-07T07:54:35.224Z,13.97
2019-05-07T07:57:12.700Z,9.20
2019-05-07T08:00:02.595Z,9.60
2019-05-07T08:02:54.385Z,9.13
2019-05-07T08:05:25.785Z,12.37
2019-05-07T08:07:55.597Z,9.03
2019-05-07T08:10:25.484Z,9.13
2019-05-07T08:12:55.226Z,7.83
2019-05-07T08:15:24.960Z,8.93
2019-05-07T08:17:55.121Z,9.57
2019-05-07T08:20:25.025Z,9.53
2019-05-07T08:22:54.781Z,9.00
2019-05-07T08:25:43.275Z,14.53
2019-05-07T08:28:12.670Z,9.43
2019-05-07T08:30:46.409Z,9.53
2019-05-07T08:33:28.817Z,12.20
2019-05-07T08:36:14.917Z,8.90
2019-05-07T08:38:53.114Z,13.47
2019-05-07T08:41:23.324Z,11.50
2019-05-07T08:44:08.309Z,13.43
2019-05-07T08:46:42.281Z,10.00
2019-05-07T08:49:12.180Z,12.10
2019-05-07T08:51:42.603Z,10.13
2019-05-07T08:54:19.121Z,9.35
2019-05-07T08:56:54.506Z,10.67
2019-05-07T08:59:31.884Z,12.27
2019-05-07T09:02:03.126Z,8.67
2019-05-07T09:04:33.245Z,10.90
2019-05-07T09:07:04.201Z,9.40
2019-05-07T09:09:33.510Z,9.70
2019-05-07T09:12:03.237Z,8.30
2019-05-07T09:14:32.968Z,8.70
2019-05-07T09:17:04.488Z,9.30
2019-05-07T09:19:47.261Z,8.35
2019-05-07T09:22:05.542Z,8.00
2019-05-07T09:24:35.878Z,7.47
2019-05-07T09:27:13.264Z,8.33
2019-05-07T09:30:02.796Z,8.80
2019-05-07T09:33:09.514Z,11.23
2019-05-07T09:35:48.056Z,11.70
2019-05-07T09:38:22.298Z,9.70
2019-05-07T09:40:52.460Z,11.43
2019-05-07T09:43:22.446Z,8.98
2019-05-07T09:45:52.434Z,9.90
2019-05-07T09:48:22.254Z,10.08
2019-05-07T09:50:53.021Z,11.10
2019-05-07T09:53:26.937Z,12.10
2019-05-07T09:55:56.285Z,14.00
2019-05-07T09:58:35.665Z,11.50
2019-05-07T10:00:57.479Z,10.30
2019-05-07T10:03:27.501Z,9.03
2019-05-07T10:05:57.893Z,9.57
2019-05-07T10:08:27.317Z,10.73
2019-05-07T10:10:56.709Z,14.53
2019-05-07T10:13:42.405Z,14.20
2019-05-07T10:16:12.806Z,11.53
2019-05-07T10:18:42.712Z,13.30
2019-05-07T10:21:12.797Z,14.93
2019-05-07T10:23:46.516Z,12.50
2019-05-07T10:26:22.560Z,16.30
2019-05-07T10:28:52.899Z,14.47
2019-05-07T10:31:22.433Z,10.57
2019-05-07T10:33:52.533Z,14.53
2019-05-07T10:36:24.339Z,12.45
2019-05-07T10:38:53.748Z,13.40
2019-05-07T10:41:24.155Z,11.65
2019-05-07T10:43:53.580Z,12.00
2019-05-07T10:46:43.634Z,18.17
2019-05-07T10:49:25.989Z,11.87
2019-05-07T10:51:55.372Z,15.63
2019-05-07T10:54:24.767Z,12.25
2019-05-07T10:56:56.825Z,12.82
2019-05-07T10:59:26.269Z,12.23
2019-05-07T11:02:21.962Z,9.47
2019-05-07T11:04:53.189Z,12.40
2019-05-07T11:07:29.465Z,11.35
2019-05-07T11:10:06.028Z,11.43
2019-05-07T11:12:42.473Z,11.50
2019-05-07T11:15:16.854Z,11.23
2019-05-07T11:17:55.152Z,32.53
2019-05-07T11:20:28.207Z,11.80
2019-05-07T11:22:57.594Z,11.60
2019-05-07T11:25:32.931Z,20.17
2019-05-07T11:28:04.471Z,17.20
2019-05-07T11:30:36.344Z,15.45
2019-05-07T11:33:06.560Z,12.10
2019-05-07T11:35:37.437Z,16.37
2019-05-07T11:38:20.700Z,12.77
2019-05-07T11:40:45.622Z,12.87
2019-05-07T11:43:53.890Z,11.90
2019-05-07T11:46:41.952Z,18.70
2019-05-07T11:49:22.737Z,11.57
2019-05-07T11:52:07.749Z,9.87
2019-05-07T11:54:42.060Z,10.58
2019-05-07T11:57:11.680Z,11.60
2019-05-07T11:59:41.822Z,10.20
2019-05-07T12:02:12.098Z,11.00
2019-05-07T12:04:45.602Z,12.60
2019-05-07T12:07:16.574Z,11.65
2019-05-07T12:09:48.912Z,13.13
2019-05-07T12:12:18.877Z,12.43
2019-05-07T12:14:48.681Z,10.40
2019-05-07T12:17:19.310Z,9.73
2019-05-07T12:19:49.618Z,13.73
2019-05-07T12:22:38.086Z,13.53
2019-05-07T12:25:12.122Z,13.77
2019-05-07T12:27:41.569Z,14.40
2019-05-07T12:30:14.806Z,10.30
2019-05-07T12:33:18.892Z,12.00
2019-05-07T12:35:52.340Z,11.20
2019-05-07T12:38:25.607Z,13.38
2019-05-07T12:40:54.948Z,13.87
2019-05-07T12:43:25.093Z,12.40
2019-05-07T12:45:56.045Z,12.33
2019-05-07T12:48:25.368Z,12.40
2019-05-07T12:50:54.781Z,10.93
2019-05-07T12:53:47.003Z,11.67
2019-05-07T12:56:18.129Z,15.83
2019-05-07T12:58:53.955Z,13.53
2019-05-07T13:01:33.400Z,11.68
2019-05-07T13:04:12.312Z,10.23
2019-05-07T13:06:54.537Z,10.60
2019-05-07T13:09:24.217Z,12.43
2019-05-07T13:11:54.877Z,15.10
2019-05-07T13:14:29.181Z,9.78
2019-05-07T13:16:59.178Z,11.03
2019-05-07T13:19:28.681Z,13.13
2019-05-07T13:21:59.366Z,12.53
2019-05-07T13:24:29.261Z,9.77
2019-05-07T13:26:59.623Z,13.03
2019-05-07T13:29:29.013Z,15.70
2019-05-07T13:32:02.928Z,10.17
2019-05-07T13:34:34.177Z,14.03
2019-05-07T13:37:09.715Z,13.77
2019-05-07T13:39:43.740Z,13.17
2019-05-07T13:42:46.989Z,15.25
2019-05-07T13:45:38.044Z,16.14
2019-05-07T13:48:17.815Z,10.43
2019-05-07T13:50:48.721Z,12.00
2019-05-07T13:53:19.240Z,15.33
2019-05-07T13:55:49.116Z,15.07
2019-05-07T13:58:19.823Z,13.33
2019-05-07T14:01:08.173Z,12.50
2019-05-07T14:03:38.616Z,13.43
2019-05-07T14:06:07.995Z,12.10
2019-05-07T14:08:42.330Z,12.53
2019-05-07T14:11:13.918Z,13.63
2019-05-07T14:13:46.877Z,13.03
2019-05-07T14:16:22.214Z,12.77
2019-05-07T14:18:53.413Z,12.37
2019-05-07T14:21:22.839Z,10.27
2019-05-07T14:23:54.105Z,11.67
2019-05-07T14:26:25.468Z,12.20
2019-05-07T14:28:55.228Z,11.40
2019-05-07T14:31:25.240Z,10.77
2019-05-07T14:34:12.378Z,13.53
2019-05-07T14:36:54.369Z,16.47
2019-05-07T14:39:29.707Z,11.03
2019-05-07T14:42:06.423Z,11.70
2019-05-07T14:44:49.093Z,11.73
2019-05-07T14:47:22.500Z,10.67
2019-05-07T14:49:52.959Z,13.90
2019-05-07T14:52:35.581Z,10.93
2019-05-07T14:55:08.626Z,15.63
2019-05-07T14:57:42.082Z,10.93
2019-05-07T15:00:13.444Z,13.10
2019-05-07T15:02:42.877Z,12.73
2019-05-07T15:05:14.329Z,12.63
2019-05-07T15:07:44.224Z,12.53
2019-05-07T15:10:15.452Z,11.40
2019-05-07T15:12:46.381Z,16.43
2019-05-07T15:15:16.480Z,11.85
2019-05-07T15:17:58.438Z,16.70
2019-05-07T15:20:27.884Z,14.25
2019-05-07T15:23:06.382Z,11.90
2019-05-07T15:25:36.209Z,11.88
2019-05-07T15:28:06.601Z,13.27
2019-05-07T15:30:52.217Z,12.27
2019-05-07T15:33:21.850Z,14.85
2019-05-07T15:35:53.247Z,13.37
2019-05-07T15:38:26.732Z,17.63
2019-05-07T15:40:56.128Z,13.97
2019-05-07T15:43:27.269Z,14.73
2019-05-07T15:45:57.322Z,11.73
2019-05-07T15:48:26.724Z,10.90
2019-05-07T15:51:01.940Z,11.50
2019-05-07T15:53:47.569Z,11.13
2019-05-07T15:56:18.217Z,11.95
2019-05-07T15:58:47.566Z,10.97
2019-05-07T16:01:17.573Z,12.80
2019-05-07T16:03:46.989Z,15.97
2019-05-07T16:06:17.233Z,14.43
2019-05-07T16:08:56.894Z,16.67
2019-05-07T16:11:31.832Z,16.70
2019-05-07T16:14:26.744Z,19.47
2019-05-07T16:17:04.997Z,14.57
2019-05-07T16:19:36.265Z,12.03
2019-05-07T16:22:10.208Z,11.60
2019-05-07T16:24:39.604Z,14.00
2019-05-07T16:27:09.007Z,14.13
2019-05-07T16:29:38.473Z,13.70
2019-05-07T16:32:08.452Z,12.07
2019-05-07T16:34:38.036Z,24.07
2019-05-07T16:37:13.707Z,13.10
2019-05-07T16:39:43.201Z,15.58
2019-05-07T16:42:17.723Z,13.77
2019-05-07T16:44:52.840Z,21.07
2019-05-07T16:47:22.915Z,14.27
2019-05-07T16:49:54.736Z,12.83
2019-05-07T16:52:24.508Z,14.27
2019-05-07T16:54:55.305Z,14.33
2019-05-07T16:57:44.352Z,15.70
2019-05-07T17:00:31.732Z,15.27
2019-05-07T17:03:03.144Z,18.33
2019-05-07T17:05:34.208Z,17.02
2019-05-07T17:08:22.440Z,21.10
2019-05-07T17:10:53.095Z,14.90
2019-05-07T17:13:23.884Z,16.70
2019-05-07T17:16:03.023Z,17.23
2019-05-07T17:18:32.759Z,16.80
2019-05-07T17:21:02.357Z,23.67
2019-05-07T17:23:43.282Z,16.83
2019-05-07T17:26:04.999Z,17.93
2019-05-07T17:28:34.533Z,16.97
2019-05-07T17:31:04.838Z,17.50
2019-05-07T17:33:34.429Z,16.60
2019-05-07T17:36:03.828Z,20.53
2019-05-07T17:38:33.836Z,18.43
2019-05-07T17:41:13.657Z,15.03
2019-05-07T17:43:35.224Z,16.97
2019-05-07T17:46:04.806Z,26.43
2019-05-07T17:48:34.473Z,16.25
2019-05-07T17:51:25.663Z,17.70
2019-05-07T17:53:59.894Z,15.60
2019-05-07T17:56:27.792Z,16.73
2019-05-07T17:58:57.466Z,26.50
2019-05-07T18:01:36.560Z,20.20
2019-05-07T18:04:05.979Z,17.83
2019-05-07T18:06:35.962Z,17.37
2019-05-07T18:09:06.842Z,18.37
2019-05-07T18:11:36.564Z,18.90
2019-05-07T18:14:07.503Z,21.07
2019-05-07T18:17:02.105Z,20.70
2019-05-07T18:19:33.251Z,20.17
2019-05-07T18:22:02.774Z,16.97
2019-05-07T18:24:33.711Z,17.43
2019-05-07T18:27:04.391Z,14.43
2019-05-07T18:29:35.273Z,18.50
2019-05-07T18:32:06.871Z,17.97
2019-05-07T18:34:36.418Z,16.30
2019-05-07T18:37:08.661Z,15.90
2019-05-07T18:39:38.336Z,19.80
2019-05-07T18:42:08.677Z,17.67
2019-05-07T18:44:38.499Z,18.40
2019-05-07T18:47:07.829Z,18.33
2019-05-07T18:49:37.708Z,19.12
2019-05-07T18:52:08.396Z,15.72
2019-05-07T18:54:38.709Z,16.17
2019-05-07T18:57:10.959Z,19.53
2019-05-07T18:59:46.899Z,19.40
2019-05-07T19:02:17.216Z,19.67
2019-05-07T19:04:46.721Z,23.67
2019-05-07T19:07:16.861Z,18.93
2019-05-07T19:09:47.852Z,21.13
2019-05-07T19:12:22.324Z,19.32
2019-05-07T19:14:51.978Z,18.27
2019-05-07T19:17:22.224Z,23.62
2019-05-07T19:19:54.341Z,18.40
2019-05-07T19:22:23.740Z,20.47
2019-05-07T19:24:53.276Z,22.58
2019-05-07T19:27:22.872Z,22.63
2019-05-07T19:29:59.610Z,21.60
2019-05-07T19:32:29.447Z,23.30
2019-05-07T19:35:02.915Z,22.90
2019-05-07T19:37:35.476Z,24.80
2019-05-07T19:40:05.577Z,18.93
2019-05-07T19:42:35.843Z,21.62
2019-05-07T19:45:06.921Z,23.73
2019-05-07T19:47:36.851Z,25.90
2019-05-07T19:50:07.651Z,22.77
2019-05-07T19:52:37.173Z,22.62
2019-05-07T19:55:07.213Z,31.13
2019-05-07T19:57:43.305Z,24.80
2019-05-07T20:00:13.502Z,20.32
2019-05-07T20:02:46.047Z,28.43
2019-05-07T20:05:16.859Z,26.08
2019-05-07T20:07:46.341Z,25.27
2019-05-07T20:10:22.701Z,22.17
2019-05-07T20:12:52.837Z,27.17
2019-05-07T20:15:22.481Z,27.70
2019-05-07T20:17:52.642Z,28.47
2019-05-07T20:20:23.685Z,24.56
2019-05-07T20:22:53.258Z,34.23
2019-05-07T20:25:27.868Z,23.67
2019-05-07T20:27:57.428Z,23.03
2019-05-07T20:30:26.949Z,19.20
2019-05-07T20:32:57.584Z,19.23
2019-05-07T20:35:29.085Z,25.73
2019-05-07T20:37:58.477Z,19.20
2019-05-07T20:40:27.877Z,27.70
2019-05-07T20:42:57.309Z,22.93
2019-05-07T20:45:27.656Z,19.57
2019-05-07T20:47:58.278Z,21.25
2019-05-07T20:50:27.922Z,22.90
2019-05-07T20:52:57.911Z,25.53
2019-05-07T20:55:34.313Z,21.80
2019-05-07T20:58:04.346Z,28.50
2019-05-07T21:00:34.576Z,25.35
2019-05-07T21:03:23.401Z,22.13
2019-05-07T21:05:53.579Z,25.30
2019-05-07T21:08:23.216Z,24.30
2019-05-07T21:10:54.312Z,21.43
2019-05-07T21:13:30.954Z,23.10
2019-05-07T21:15:56.216Z,25.73
2019-05-07T21:18:26.564Z,26.63
2019-05-07T21:20:56.377Z,23.30
2019-05-07T21:23:32.413Z,32.10
2019-05-07T21:26:03.135Z,29.13
2019-05-07T21:28:34.385Z,22.37
2019-05-07T21:31:04.146Z,25.20
2019-05-07T21:33:33.548Z,22.10
2019-05-07T21:36:11.878Z,23.27
2019-05-07T21:38:42.706Z,23.03
2019-05-07T21:41:14.064Z,23.80
2019-05-07T21:43:46.203Z,20.27
2019-05-07T21:46:17.766Z,20.20
2019-05-07T21:48:47.130Z,21.82
2019-05-07T21:51:22.675Z,23.87
2019-05-07T21:54:04.268Z,20.30
2019-05-07T21:56:56.374Z,21.10
2019-05-07T21:59:27.144Z,24.47
2019-05-07T22:02:02.233Z,22.50
2019-05-07T22:04:33.030Z,21.90
2019-05-07T22:07:02.930Z,22.20
2019-05-07T22:09:33.082Z,23.80
2019-05-07T22:12:04.320Z,23.50
2019-05-07T22:14:37.121Z,25.53
2019-05-07T22:17:06.513Z,22.53
2019-05-07T22:19:38.180Z,24.37
2019-05-07T22:22:12.342Z,26.70
2019-05-07T22:24:42.663Z,18.43
2019-05-07T22:27:14.181Z,20.77
2019-05-07T22:29:43.495Z,20.63
2019-05-07T22:32:24.942Z,24.17
2019-05-07T22:35:22.760Z,21.80
2019-05-07T22:37:54.034Z,18.75
2019-05-07T22:40:23.360Z,24.17
2019-05-07T22:42:52.781Z,19.67
2019-05-07T22:45:23.576Z,23.56
2019-05-07T22:47:53.006Z,22.15
2019-05-07T22:50:22.682Z,19.73
2019-05-07T22:52:54.340Z,25.70
2019-05-07T22:55:24.458Z,25.23
2019-05-07T22:58:08.642Z,19.40
2019-05-07T23:00:48.310Z,21.53
2019-05-07T23:03:22.848Z,25.02
2019-05-07T23:05:54.240Z,25.50
2019-05-07T23:08:24.722Z,26.20
2019-05-07T23:10:54.921Z,29.70
2019-05-07T23:13:25.697Z,22.40
2019-05-07T23:15:55.385Z,19.40
2019-05-07T23:18:26.964Z,19.30
2019-05-07T23:20:59.685Z,20.47
2019-05-07T23:23:32.552Z,23.67
2019-05-07T23:26:06.349Z,23.13
2019-05-07T23:28:36.265Z,35.83
2019-05-07T23:31:06.043Z,29.07
2019-05-07T23:33:35.913Z,24.47
2019-05-07T23:36:05.874Z,21.57
2019-05-07T23:38:38.943Z,24.52
2019-05-07T23:41:36.263Z,27.10
2019-05-07T23:44:15.068Z,20.30
2019-05-07T23:46:46.859Z,23.60
2019-05-07T23:49:23.191Z,25.70
2019-05-07T23:51:53.204Z,21.47
2019-05-07T23:54:23.201Z,21.05
2019-05-07T23:57:06.010Z,19.80
2019-05-07T23:59:27.064Z,24.03
